sensor_id;sensor_type;location;lat;lon;timestamp;pressure;altitude;pressure_sealevel;temperature;humidity
9439;BME280;5176;42.622;25.386;2023-06-24T00:01:32;97324.09;;;22.85;84.11
9439;BME280;5176;42.622;25.386;2023-06-24T00:04:01;97324.50;;;22.74;84.98
9439;BME280;5176;42.622;25.386;2023-06-24T00:06:28;97319.63;;;22.77;85.01
9439;BME280;5176;42.622;25.386;2023-06-24T00:08:55;97316.78;;;22.79;84.65
9439;BME280;5176;42.622;25.386;2023-06-24T00:11:27;97314.78;;;22.81;84.91
9439;BME280;5176;42.622;25.386;2023-06-24T00:13:55;97314.94;;;22.79;85.06
9439;BME280;5176;42.622;25.386;2023-06-24T00:16:22;97308.44;;;22.82;84.43
9439;BME280;5176;42.622;25.386;2023-06-24T00:18:53;97311.09;;;22.82;83.99
9439;BME280;5176;42.622;25.386;2023-06-24T00:21:25;97308.44;;;22.82;84.59
9439;BME280;5176;42.622;25.386;2023-06-24T00:23:56;97313.94;;;22.80;84.46
9439;BME280;5176;42.622;25.386;2023-06-24T00:26:23;97299.44;;;22.67;84.59
9439;BME280;5176;42.622;25.386;2023-06-24T00:28:51;97295.81;;;22.51;85.56
9439;BME280;5176;42.622;25.386;2023-06-24T00:31:19;97307.34;;;22.52;85.46
9439;BME280;5176;42.622;25.386;2023-06-24T00:33:46;97305.50;;;22.52;85.80
9439;BME280;5176;42.622;25.386;2023-06-24T00:36:15;97305.34;;;22.54;85.47
9439;BME280;5176;42.622;25.386;2023-06-24T00:38:44;97299.50;;;22.50;85.65
9439;BME280;5176;42.622;25.386;2023-06-24T00:41:11;97292.34;;;22.43;85.80
9439;BME280;5176;42.622;25.386;2023-06-24T00:43:38;97289.03;;;22.24;85.87
9439;BME280;5176;42.622;25.386;2023-06-24T00:46:06;97286.19;;;22.26;86.30
9439;BME280;5176;42.622;25.386;2023-06-24T00:48:33;97283.03;;;22.22;87.15
9439;BME280;5176;42.622;25.386;2023-06-24T00:51:00;97279.88;;;22.19;87.51
9439;BME280;5176;42.622;25.386;2023-06-24T00:53:27;97287.56;;;22.22;87.16
9439;BME280;5176;42.622;25.386;2023-06-24T00:55:58;97283.53;;;22.18;87.65
9439;BME280;5176;42.622;25.386;2023-06-24T00:58:29;97277.56;;;22.16;86.94
9439;BME280;5176;42.622;25.386;2023-06-24T01:00:57;97284.22;;;22.12;87.46
9439;BME280;5176;42.622;25.386;2023-06-24T01:03:25;97279.88;;;22.11;86.65
9439;BME280;5176;42.622;25.386;2023-06-24T01:05:54;97291.91;;;22.15;86.68
9439;BME280;5176;42.622;25.386;2023-06-24T01:08:21;97284.22;;;22.12;86.93
9439;BME280;5176;42.622;25.386;2023-06-24T01:10:49;97281.19;;;22.07;86.98
9439;BME280;5176;42.622;25.386;2023-06-24T01:13:18;97283.22;;;21.96;87.68
9439;BME280;5176;42.622;25.386;2023-06-24T01:15:45;97271.38;;;21.91;88.29
9439;BME280;5176;42.622;25.386;2023-06-24T01:18:23;97270.03;;;21.95;87.94
9439;BME280;5176;42.622;25.386;2023-06-24T01:20:56;97273.88;;;21.92;87.65
9439;BME280;5176;42.622;25.386;2023-06-24T01:27:12;97266.69;;;21.93;89.47
9439;BME280;5176;42.622;25.386;2023-06-24T01:30:01;97274.69;;;21.93;91.62
9439;BME280;5176;42.622;25.386;2023-06-24T01:32:38;97268.22;;;21.95;92.40
9439;BME280;5176;42.622;25.386;2023-06-24T01:35:15;97269.03;;;21.96;92.95
9439;BME280;5176;42.622;25.386;2023-06-24T01:37:48;97271.19;;;21.92;93.93
9439;BME280;5176;42.622;25.386;2023-06-24T01:40:22;97272.72;;;21.95;95.46
9439;BME280;5176;42.622;25.386;2023-06-24T01:42:52;97263.03;;;21.86;96.81
9439;BME280;5176;42.622;25.386;2023-06-24T01:45:23;97251.06;;;21.73;96.94
9439;BME280;5176;42.622;25.386;2023-06-24T01:47:59;97269.03;;;21.71;97.46
9439;BME280;5176;42.622;25.386;2023-06-24T01:50:31;97257.88;;;21.68;97.42
9439;BME280;5176;42.622;25.386;2023-06-24T01:53:01;97269.38;;;21.68;97.49
9439;BME280;5176;42.622;25.386;2023-06-24T01:55:32;97267.22;;;21.64;97.69
9439;BME280;5176;42.622;25.386;2023-06-24T01:58:02;97268.69;;;21.58;97.03
9439;BME280;5176;42.622;25.386;2023-06-24T02:00:29;97277.22;;;21.54;95.24
9439;BME280;5176;42.622;25.386;2023-06-24T02:02:59;97272.03;;;21.44;94.36
9439;BME280;5176;42.622;25.386;2023-06-24T02:05:28;97267.53;;;21.36;93.87
9439;BME280;5176;42.622;25.386;2023-06-24T02:07:58;97258.69;;;21.36;93.08
9439;BME280;5176;42.622;25.386;2023-06-24T02:10:27;97255.69;;;21.39;92.54
9439;BME280;5176;42.622;25.386;2023-06-24T02:12:57;97246.16;;;21.20;93.31
9439;BME280;5176;42.622;25.386;2023-06-24T02:15:26;97263.25;;;21.01;94.53
9439;BME280;5176;42.622;25.386;2023-06-24T02:17:55;97270.91;;;20.96;96.06
9439;BME280;5176;42.622;25.386;2023-06-24T02:20:25;97270.06;;;20.95;96.07
9439;BME280;5176;42.622;25.386;2023-06-24T02:22:54;97268.72;;;21.00;97.49
9439;BME280;5176;42.622;25.386;2023-06-24T02:25:22;97271.56;;;21.06;98.13
9439;BME280;5176;42.622;25.386;2023-06-24T02:27:50;97272.44;;;21.07;98.00
9439;BME280;5176;42.622;25.386;2023-06-24T02:30:18;97290.75;;;21.10;97.65
9439;BME280;5176;42.622;25.386;2023-06-24T02:32:46;97290.41;;;21.05;96.10
9439;BME280;5176;42.622;25.386;2023-06-24T02:35:13;97298.22;;;21.06;99.37
9439;BME280;5176;42.622;25.386;2023-06-24T02:37:42;97301.41;;;21.02;99.86
9439;BME280;5176;42.622;25.386;2023-06-24T02:40:09;97299.03;;;20.99;99.44
9439;BME280;5176;42.622;25.386;2023-06-24T02:42:37;97302.72;;;20.98;99.67
9439;BME280;5176;42.622;25.386;2023-06-24T02:45:06;97308.84;;;20.90;99.75
9439;BME280;5176;42.622;25.386;2023-06-24T02:47:33;97308.16;;;20.80;100.00
9439;BME280;5176;42.622;25.386;2023-06-24T02:50:02;97305.50;;;20.80;100.00
9439;BME280;5176;42.622;25.386;2023-06-24T02:52:30;97299.97;;;20.73;100.00
9439;BME280;5176;42.622;25.386;2023-06-24T02:54:59;97297.56;;;20.62;100.00
9439;BME280;5176;42.622;25.386;2023-06-24T02:57:26;97302.25;;;20.60;100.00
9439;BME280;5176;42.622;25.386;2023-06-24T02:59:54;97298.41;;;20.62;100.00
9439;BME280;5176;42.622;25.386;2023-06-24T03:02:21;97307.75;;;20.66;100.00
9439;BME280;5176;42.622;25.386;2023-06-24T03:04:50;97310.94;;;20.70;100.00
9439;BME280;5176;42.622;25.386;2023-06-24T03:07:18;97308.09;;;20.72;100.00
9439;BME280;5176;42.622;25.386;2023-06-24T03:09:46;97312.59;;;20.71;100.00
9439;BME280;5176;42.622;25.386;2023-06-24T03:12:15;97304.28;;;20.74;100.00
9439;BME280;5176;42.622;25.386;2023-06-24T03:14:42;97303.28;;;20.75;100.00
9439;BME280;5176;42.622;25.386;2023-06-24T03:17:10;97306.63;;;20.77;100.00
9439;BME280;5176;42.622;25.386;2023-06-24T03:19:37;97305.31;;;20.81;100.00
9439;BME280;5176;42.622;25.386;2023-06-24T03:22:05;97319.66;;;20.80;100.00
9439;BME280;5176;42.622;25.386;2023-06-24T03:24:32;97326.63;;;20.81;100.00
9439;BME280;5176;42.622;25.386;2023-06-24T03:26:59;97326.63;;;20.81;100.00
9439;BME280;5176;42.622;25.386;2023-06-24T03:29:28;97319.97;;;20.85;100.00
9439;BME280;5176;42.622;25.386;2023-06-24T03:31:55;97324.81;;;20.82;100.00
9439;BME280;5176;42.622;25.386;2023-06-24T03:34:22;97322.56;;;20.69;100.00
9439;BME280;5176;42.622;25.386;2023-06-24T03:36:49;97330.22;;;20.72;100.00
9439;BME280;5176;42.622;25.386;2023-06-24T03:39:16;97334.25;;;20.76;100.00
9439;BME280;5176;42.622;25.386;2023-06-24T03:41:44;97330.97;;;20.82;100.00
9439;BME280;5176;42.622;25.386;2023-06-24T03:44:11;97327.31;;;20.83;100.00
9439;BME280;5176;42.622;25.386;2023-06-24T03:46:40;97333.66;;;20.90;100.00
9439;BME280;5176;42.622;25.386;2023-06-24T03:49:07;97330.81;;;20.92;100.00
9439;BME280;5176;42.622;25.386;2023-06-24T03:51:34;97327.03;;;20.94;100.00
9439;BME280;5176;42.622;25.386;2023-06-24T03:54:01;97331.84;;;20.99;100.00
9439;BME280;5176;42.622;25.386;2023-06-24T03:56:28;97331.19;;;20.97;100.00
9439;BME280;5176;42.622;25.386;2023-06-24T03:58:56;97334.84;;;20.96;100.00
9439;BME280;5176;42.622;25.386;2023-06-24T04:01:23;97328.69;;;20.95;100.00
9439;BME280;5176;42.622;25.386;2023-06-24T04:03:51;97341.69;;;20.99;100.00
9439;BME280;5176;42.622;25.386;2023-06-24T04:06:19;97341.69;;;20.99;100.00
9439;BME280;5176;42.622;25.386;2023-06-24T04:08:46;97336.03;;;21.02;100.00
9439;BME280;5176;42.622;25.386;2023-06-24T04:11:14;97333.88;;;21.05;100.00
9439;BME280;5176;42.622;25.386;2023-06-24T04:13:41;97327.69;;;20.97;100.00
9439;BME280;5176;42.622;25.386;2023-06-24T04:16:09;97327.88;;;21.03;100.00
9439;BME280;5176;42.622;25.386;2023-06-24T04:18:36;97328.06;;;21.10;100.00
9439;BME280;5176;42.622;25.386;2023-06-24T04:21:07;97329.75;;;21.11;100.00
9439;BME280;5176;42.622;25.386;2023-06-24T04:23:34;97331.38;;;21.04;100.00
9439;BME280;5176;42.622;25.386;2023-06-24T04:26:01;97309.63;;;20.74;100.00
9439;BME280;5176;42.622;25.386;2023-06-24T04:28:29;97337.31;;;20.89;100.00
9439;BME280;5176;42.622;25.386;2023-06-24T04:30:56;97335.84;;;20.95;100.00
9439;BME280;5176;42.622;25.386;2023-06-24T04:33:24;97338.34;;;20.97;100.00
9439;BME280;5176;42.622;25.386;2023-06-24T04:35:51;97333.03;;;21.05;100.00
9439;BME280;5176;42.622;25.386;2023-06-24T04:38:20;97331.75;;;21.17;100.00
9439;BME280;5176;42.622;25.386;2023-06-24T04:40:48;97343.66;;;21.31;100.00
9439;BME280;5176;42.622;25.386;2023-06-24T04:43:16;97336.84;;;21.44;100.00
9439;BME280;5176;42.622;25.386;2023-06-24T04:45:43;97336.72;;;21.54;100.00
9439;BME280;5176;42.622;25.386;2023-06-24T04:48:10;97334.06;;;21.54;100.00
9439;BME280;5176;42.622;25.386;2023-06-24T04:50:38;97337.56;;;21.63;100.00
9439;BME280;5176;42.622;25.386;2023-06-24T04:53:06;97328.38;;;21.65;100.00
9439;BME280;5176;42.622;25.386;2023-06-24T04:55:35;97346.75;;;21.85;100.00
9439;BME280;5176;42.622;25.386;2023-06-24T04:58:02;97345.59;;;21.95;100.00
9439;BME280;5176;42.622;25.386;2023-06-24T05:00:30;97337.75;;;22.02;100.00
9439;BME280;5176;42.622;25.386;2023-06-24T05:02:57;97334.75;;;22.13;100.00
9439;BME280;5176;42.622;25.386;2023-06-24T05:05:25;97344.28;;;22.24;100.00
9439;BME280;5176;42.622;25.386;2023-06-24T05:07:52;97335.25;;;22.33;100.00
9439;BME280;5176;42.622;25.386;2023-06-24T05:10:20;97339.59;;;22.42;100.00
9439;BME280;5176;42.622;25.386;2023-06-24T05:12:49;97341.22;;;22.51;100.00
9439;BME280;5176;42.622;25.386;2023-06-24T05:15:16;97341.72;;;22.63;100.00
9439;BME280;5176;42.622;25.386;2023-06-24T05:17:44;97338.19;;;22.71;100.00
9439;BME280;5176;42.622;25.386;2023-06-24T05:20:11;97338.31;;;22.77;100.00
9439;BME280;5176;42.622;25.386;2023-06-24T05:22:39;97342.16;;;22.83;100.00
9439;BME280;5176;42.622;25.386;2023-06-24T05:25:07;97338.47;;;22.92;100.00
9439;BME280;5176;42.622;25.386;2023-06-24T05:27:34;97336.25;;;23.04;100.00
9439;BME280;5176;42.622;25.386;2023-06-24T05:30:03;97324.69;;;23.11;100.00
9439;BME280;5176;42.622;25.386;2023-06-24T05:32:31;97325.66;;;23.19;100.00
9439;BME280;5176;42.622;25.386;2023-06-24T05:34:58;97327.63;;;23.25;100.00
9439;BME280;5176;42.622;25.386;2023-06-24T05:37:26;97340.31;;;23.31;97.47
9439;BME280;5176;42.622;25.386;2023-06-24T05:39:53;97333.44;;;23.36;95.26
9439;BME280;5176;42.622;25.386;2023-06-24T05:42:22;97334.03;;;23.47;93.10
9439;BME280;5176;42.622;25.386;2023-06-24T05:44:51;97337.38;;;23.49;92.59
9439;BME280;5176;42.622;25.386;2023-06-24T05:47:20;97331.13;;;23.56;89.80
9439;BME280;5176;42.622;25.386;2023-06-24T05:49:47;97295.78;;;23.38;87.16
9439;BME280;5176;42.622;25.386;2023-06-24T05:52:15;97336.75;;;23.70;88.09
9439;BME280;5176;42.622;25.386;2023-06-24T05:54:42;97340.56;;;23.75;91.73
9439;BME280;5176;42.622;25.386;2023-06-24T05:57:09;97336.50;;;23.79;89.52
9439;BME280;5176;42.622;25.386;2023-06-24T05:59:37;97338.13;;;23.88;88.50
9439;BME280;5176;42.622;25.386;2023-06-24T06:02:05;97344.78;;;23.92;82.82
9439;BME280;5176;42.622;25.386;2023-06-24T06:04:34;97345.47;;;23.95;85.25
9439;BME280;5176;42.622;25.386;2023-06-24T06:07:01;97342.34;;;24.06;86.78
9439;BME280;5176;42.622;25.386;2023-06-24T06:09:28;97339.44;;;24.15;82.61
9439;BME280;5176;42.622;25.386;2023-06-24T06:11:56;97336.66;;;24.24;84.19
9439;BME280;5176;42.622;25.386;2023-06-24T06:14:23;97340.28;;;24.31;86.44
9439;BME280;5176;42.622;25.386;2023-06-24T06:16:50;97339.06;;;24.41;87.26
9439;BME280;5176;42.622;25.386;2023-06-24T06:19:17;97339.25;;;24.55;85.63
9439;BME280;5176;42.622;25.386;2023-06-24T06:21:46;97331.75;;;24.65;86.80
9439;BME280;5176;42.622;25.386;2023-06-24T06:24:14;97336.69;;;24.76;82.70
9439;BME280;5176;42.622;25.386;2023-06-24T06:26:42;97337.69;;;24.90;80.75
9439;BME280;5176;42.622;25.386;2023-06-24T06:29:10;97344.78;;;24.97;70.02
9439;BME280;5176;42.622;25.386;2023-06-24T06:31:37;97341.84;;;25.07;70.24
9439;BME280;5176;42.622;25.386;2023-06-24T06:34:05;97346.47;;;25.13;66.35
9439;BME280;5176;42.622;25.386;2023-06-24T06:36:32;97349.25;;;25.20;68.10
9439;BME280;5176;42.622;25.386;2023-06-24T06:39:01;97353.41;;;25.22;66.19
9439;BME280;5176;42.622;25.386;2023-06-24T06:41:28;97347.94;;;25.31;68.66
9439;BME280;5176;42.622;25.386;2023-06-24T06:43:56;97347.63;;;25.40;68.83
9439;BME280;5176;42.622;25.386;2023-06-24T06:46:23;97349.75;;;25.45;67.18
9439;BME280;5176;42.622;25.386;2023-06-24T06:48:51;97355.81;;;25.53;60.23
9439;BME280;5176;42.622;25.386;2023-06-24T06:51:18;97352.19;;;25.61;60.85
9439;BME280;5176;42.622;25.386;2023-06-24T06:53:45;97346.38;;;25.72;61.74
9439;BME280;5176;42.622;25.386;2023-06-24T06:56:18;97348.34;;;25.85;62.55
9439;BME280;5176;42.622;25.386;2023-06-24T06:58:45;97349.66;;;25.89;53.03
9439;BME280;5176;42.622;25.386;2023-06-24T07:01:12;97351.38;;;25.97;57.70
9439;BME280;5176;42.622;25.386;2023-06-24T07:03:40;97344.47;;;26.09;56.65
9439;BME280;5176;42.622;25.386;2023-06-24T07:06:07;97342.72;;;26.23;54.15
9439;BME280;5176;42.622;25.386;2023-06-24T07:08:34;97333.09;;;26.35;52.01
9439;BME280;5176;42.622;25.386;2023-06-24T07:11:02;97337.13;;;26.46;52.65
9439;BME280;5176;42.622;25.386;2023-06-24T07:13:31;97343.63;;;26.58;53.33
9439;BME280;5176;42.622;25.386;2023-06-24T07:15:58;97337.06;;;26.67;50.74
9439;BME280;5176;42.622;25.386;2023-06-24T07:18:25;97338.38;;;26.78;48.42
9439;BME280;5176;42.622;25.386;2023-06-24T07:20:56;97332.47;;;26.89;45.10
9439;BME280;5176;42.622;25.386;2023-06-24T07:23:23;97340.22;;;27.05;46.68
9439;BME280;5176;42.622;25.386;2023-06-24T07:29:14;97337.84;;;27.30;44.07
9439;BME280;5176;42.622;25.386;2023-06-24T07:31:41;97335.41;;;27.35;42.43
9439;BME280;5176;42.622;25.386;2023-06-24T07:34:08;97329.19;;;27.48;43.21
9439;BME280;5176;42.622;25.386;2023-06-24T07:36:36;97333.38;;;27.57;43.69
9439;BME280;5176;42.622;25.386;2023-06-24T07:42:24;97331.41;;;27.86;42.37
9439;BME280;5176;42.622;25.386;2023-06-24T07:44:53;97326.47;;;27.96;40.81
9439;BME280;5176;42.622;25.386;2023-06-24T07:47:21;97327.69;;;28.13;41.28
9439;BME280;5176;42.622;25.386;2023-06-24T07:49:48;97326.66;;;28.21;40.79
9439;BME280;5176;42.622;25.386;2023-06-24T07:52:15;97324.22;;;28.33;41.55
9439;BME280;5176;42.622;25.386;2023-06-24T07:54:43;97336.84;;;28.39;40.46
9439;BME280;5176;42.622;25.386;2023-06-24T08:00:34;97332.72;;;28.56;40.79
9439;BME280;5176;42.622;25.386;2023-06-24T08:03:02;97333.28;;;28.71;42.05
9439;BME280;5176;42.622;25.386;2023-06-24T08:05:29;97331.41;;;28.85;40.97
9439;BME280;5176;42.622;25.386;2023-06-24T08:07:57;97332.44;;;28.97;41.91
9439;BME280;5176;42.622;25.386;2023-06-24T08:10:24;97336.97;;;29.10;42.21
9439;BME280;5176;42.622;25.386;2023-06-24T08:12:51;97342.13;;;29.18;41.86
9439;BME280;5176;42.622;25.386;2023-06-24T08:15:19;97334.59;;;29.27;42.40
9439;BME280;5176;42.622;25.386;2023-06-24T08:17:52;97327.31;;;29.34;41.00
9439;BME280;5176;42.622;25.386;2023-06-24T08:20:19;97330.81;;;29.41;43.45
9439;BME280;5176;42.622;25.386;2023-06-24T08:22:47;97328.28;;;29.46;43.25
9439;BME280;5176;42.622;25.386;2023-06-24T08:28:36;97335.94;;;29.63;45.17
9439;BME280;5176;42.622;25.386;2023-06-24T08:31:04;97335.47;;;29.72;44.28
9439;BME280;5176;42.622;25.386;2023-06-24T08:36:54;97340.09;;;29.97;43.80
9439;BME280;5176;42.622;25.386;2023-06-24T08:39:21;97333.41;;;29.99;43.95
9439;BME280;5176;42.622;25.386;2023-06-24T08:41:49;97341.25;;;30.07;44.08
9439;BME280;5176;42.622;25.386;2023-06-24T08:44:16;97339.97;;;30.17;44.32
9439;BME280;5176;42.622;25.386;2023-06-24T08:46:44;97333.00;;;30.27;45.09
9439;BME280;5176;42.622;25.386;2023-06-24T08:49:17;97333.34;;;30.37;42.76
9439;BME280;5176;42.622;25.386;2023-06-24T08:55:13;97336.09;;;30.56;44.60
9439;BME280;5176;42.622;25.386;2023-06-24T08:57:42;97325.81;;;30.64;45.27
9439;BME280;5176;42.622;25.386;2023-06-24T09:00:10;97327.97;;;30.81;43.59
9439;BME280;5176;42.622;25.386;2023-06-24T09:05:59;97316.84;;;30.89;42.55
9439;BME280;5176;42.622;25.386;2023-06-24T09:08:27;97326.25;;;30.86;42.82
9439;BME280;5176;42.622;25.386;2023-06-24T09:10:55;97328.06;;;30.92;43.09
9439;BME280;5176;42.622;25.386;2023-06-24T09:13:33;97324.53;;;30.92;43.38
9439;BME280;5176;42.622;25.386;2023-06-24T09:16:11;97316.63;;;31.09;44.23
9439;BME280;5176;42.622;25.386;2023-06-24T09:22:01;97314.16;;;31.26;43.02
9439;BME280;5176;42.622;25.386;2023-06-24T09:24:30;97318.53;;;31.27;42.51
9439;BME280;5176;42.622;25.386;2023-06-24T09:26:59;97307.38;;;31.35;42.47
9439;BME280;5176;42.622;25.386;2023-06-24T09:29:28;97309.19;;;31.41;42.80
9439;BME280;5176;42.622;25.386;2023-06-24T09:31:55;97322.28;;;31.44;41.53
9439;BME280;5176;42.622;25.386;2023-06-24T09:34:25;97312.63;;;31.48;42.16
9439;BME280;5176;42.622;25.386;2023-06-24T09:36:53;97313.59;;;31.54;41.97
9439;BME280;5176;42.622;25.386;2023-06-24T09:39:21;97325.41;;;31.59;41.58
9439;BME280;5176;42.622;25.386;2023-06-24T09:41:54;97313.41;;;31.67;39.93
9439;BME280;5176;42.622;25.386;2023-06-24T09:44:23;97312.00;;;31.76;40.51
9439;BME280;5176;42.622;25.386;2023-06-24T09:46:51;97305.25;;;31.85;41.26
9439;BME280;5176;42.622;25.386;2023-06-24T09:49:19;97295.38;;;31.91;40.32
9439;BME280;5176;42.622;25.386;2023-06-24T09:51:48;97300.13;;;32.07;39.88
9439;BME280;5176;42.622;25.386;2023-06-24T09:54:16;97297.88;;;32.16;39.52
9439;BME280;5176;42.622;25.386;2023-06-24T09:56:47;97302.81;;;32.07;39.18
9439;BME280;5176;42.622;25.386;2023-06-24T09:59:17;97296.56;;;32.07;39.38
9439;BME280;5176;42.622;25.386;2023-06-24T10:01:49;97296.53;;;31.95;38.76
9439;BME280;5176;42.622;25.386;2023-06-24T10:04:21;97284.06;;;31.94;39.18
9439;BME280;5176;42.622;25.386;2023-06-24T10:06:49;97277.00;;;32.05;39.59
9439;BME280;5176;42.622;25.386;2023-06-24T10:09:16;97274.78;;;32.13;39.04
9439;BME280;5176;42.622;25.386;2023-06-24T10:11:45;97277.97;;;32.10;38.92
9439;BME280;5176;42.622;25.386;2023-06-24T10:14:13;97278.06;;;32.15;39.03
9439;BME280;5176;42.622;25.386;2023-06-24T10:16:41;97263.34;;;32.23;37.87
9439;BME280;5176;42.622;25.386;2023-06-24T10:19:10;97263.44;;;32.16;38.24
9439;BME280;5176;42.622;25.386;2023-06-24T10:21:45;97261.09;;;32.20;38.55
9439;BME280;5176;42.622;25.386;2023-06-24T10:24:13;97215.09;;;32.02;39.61
9439;BME280;5176;42.622;25.386;2023-06-24T10:26:54;97259.34;;;32.49;39.24
9439;BME280;5176;42.622;25.386;2023-06-24T10:29:30;97256.53;;;32.56;39.02
9439;BME280;5176;42.622;25.386;2023-06-24T10:32:02;97249.78;;;32.70;39.61
9439;BME280;5176;42.622;25.386;2023-06-24T10:34:39;97245.19;;;32.70;37.71
9439;BME280;5176;42.622;25.386;2023-06-24T10:37:12;97243.19;;;32.77;37.90
9439;BME280;5176;42.622;25.386;2023-06-24T10:39:50;97235.13;;;32.83;37.53
9439;BME280;5176;42.622;25.386;2023-06-24T10:42:31;97231.50;;;32.77;37.86
9439;BME280;5176;42.622;25.386;2023-06-24T10:45:00;97233.94;;;32.90;37.68
9439;BME280;5176;42.622;25.386;2023-06-24T10:47:29;97236.63;;;33.02;38.02
9439;BME280;5176;42.622;25.386;2023-06-24T10:49:58;97234.84;;;33.07;37.50
9439;BME280;5176;42.622;25.386;2023-06-24T10:52:25;97232.84;;;33.03;38.25
9439;BME280;5176;42.622;25.386;2023-06-24T10:54:53;97226.72;;;33.07;37.84
9439;BME280;5176;42.622;25.386;2023-06-24T10:57:22;97232.63;;;33.04;38.16
9439;BME280;5176;42.622;25.386;2023-06-24T10:59:50;97227.28;;;33.10;37.64
9439;BME280;5176;42.622;25.386;2023-06-24T11:02:19;97228.84;;;33.05;38.00
9439;BME280;5176;42.622;25.386;2023-06-24T11:04:47;97223.75;;;33.09;37.51
9439;BME280;5176;42.622;25.386;2023-06-24T11:07:17;97225.63;;;33.08;37.27
9439;BME280;5176;42.622;25.386;2023-06-24T11:09:49;97223.28;;;33.12;37.44
9439;BME280;5176;42.622;25.386;2023-06-24T11:12:16;97224.50;;;33.04;37.08
9439;BME280;5176;42.622;25.386;2023-06-24T11:14:44;97219.88;;;33.05;37.41
9439;BME280;5176;42.622;25.386;2023-06-24T11:17:11;97211.94;;;33.03;37.17
9439;BME280;5176;42.622;25.386;2023-06-24T11:23:02;97202.97;;;33.03;36.82
9439;BME280;5176;42.622;25.386;2023-06-24T11:25:29;97198.69;;;33.19;36.73
9439;BME280;5176;42.622;25.386;2023-06-24T11:27:57;97194.03;;;33.31;37.78
9439;BME280;5176;42.622;25.386;2023-06-24T11:33:48;97193.81;;;33.49;36.94
9439;BME280;5176;42.622;25.386;2023-06-24T11:39:39;97181.50;;;33.58;35.85
9439;BME280;5176;42.622;25.386;2023-06-24T11:42:07;97170.44;;;33.48;36.15
9439;BME280;5176;42.622;25.386;2023-06-24T11:44:35;97176.38;;;33.45;36.17
9439;BME280;5176;42.622;25.386;2023-06-24T11:47:06;97166.19;;;33.52;35.87
9439;BME280;5176;42.622;25.386;2023-06-24T11:52:55;97164.91;;;33.43;36.00
9439;BME280;5176;42.622;25.386;2023-06-24T11:55:25;97152.50;;;33.47;36.06
9439;BME280;5176;42.622;25.386;2023-06-24T12:01:14;97155.47;;;33.63;36.73
9439;BME280;5176;42.622;25.386;2023-06-24T12:03:42;97146.81;;;33.49;35.93
9439;BME280;5176;42.622;25.386;2023-06-24T12:06:09;97146.00;;;33.48;36.91
9439;BME280;5176;42.622;25.386;2023-06-24T12:08:36;97142.03;;;33.39;36.35
9439;BME280;5176;42.622;25.386;2023-06-24T12:14:27;97138.50;;;33.55;36.11
9439;BME280;5176;42.622;25.386;2023-06-24T12:16:54;97135.47;;;33.52;36.50
9439;BME280;5176;42.622;25.386;2023-06-24T12:19:21;97129.06;;;33.58;36.64
9439;BME280;5176;42.622;25.386;2023-06-24T12:21:49;97132.44;;;33.65;36.13
9439;BME280;5176;42.622;25.386;2023-06-24T12:24:16;97132.16;;;33.67;36.33
9439;BME280;5176;42.622;25.386;2023-06-24T12:30:08;97119.16;;;33.69;36.29
9439;BME280;5176;42.622;25.386;2023-06-24T12:32:36;97116.94;;;33.66;36.56
9439;BME280;5176;42.622;25.386;2023-06-24T12:35:04;97118.56;;;33.67;36.08
9439;BME280;5176;42.622;25.386;2023-06-24T12:37:34;97124.28;;;33.65;36.01
9439;BME280;5176;42.622;25.386;2023-06-24T12:40:02;97113.63;;;33.64;35.94
9439;BME280;5176;42.622;25.386;2023-06-24T12:42:29;97115.78;;;33.61;36.15
9439;BME280;5176;42.622;25.386;2023-06-24T12:44:57;97121.94;;;33.57;36.76
9439;BME280;5176;42.622;25.386;2023-06-24T12:47:26;97106.97;;;33.54;35.92
9439;BME280;5176;42.622;25.386;2023-06-24T12:56:37;97104.00;;;33.39;36.32
9439;BME280;5176;42.622;25.386;2023-06-24T12:59:04;97099.44;;;33.28;36.19
9439;BME280;5176;42.622;25.386;2023-06-24T13:01:31;97105.28;;;33.20;36.17
9439;BME280;5176;42.622;25.386;2023-06-24T13:04:01;97106.34;;;33.19;37.05
9439;BME280;5176;42.622;25.386;2023-06-24T13:06:28;97096.56;;;33.18;36.88
9439;BME280;5176;42.622;25.386;2023-06-24T13:08:55;97089.38;;;33.12;36.58
9439;BME280;5176;42.622;25.386;2023-06-24T13:11:23;97086.16;;;33.15;36.75
9439;BME280;5176;42.622;25.386;2023-06-24T13:13:50;97097.22;;;33.25;36.53
9439;BME280;5176;42.622;25.386;2023-06-24T13:16:18;97090.88;;;33.19;37.00
9439;BME280;5176;42.622;25.386;2023-06-24T13:18:45;97084.69;;;33.07;36.69
9439;BME280;5176;42.622;25.386;2023-06-24T13:21:14;97055.16;;;32.82;36.73
9439;BME280;5176;42.622;25.386;2023-06-24T13:23:41;97065.47;;;32.97;37.07
9439;BME280;5176;42.622;25.386;2023-06-24T13:26:09;97051.44;;;33.00;36.85
9439;BME280;5176;42.622;25.386;2023-06-24T13:28:37;97059.06;;;33.03;36.21
9439;BME280;5176;42.622;25.386;2023-06-24T13:31:05;97062.63;;;33.03;36.00
9439;BME280;5176;42.622;25.386;2023-06-24T13:33:32;97044.53;;;33.09;36.82
9439;BME280;5176;42.622;25.386;2023-06-24T13:35:59;97048.66;;;33.12;36.38
9439;BME280;5176;42.622;25.386;2023-06-24T13:38:29;97048.00;;;33.04;36.31
9439;BME280;5176;42.622;25.386;2023-06-24T13:40:57;97056.13;;;33.04;36.33
9439;BME280;5176;42.622;25.386;2023-06-24T13:43:24;97049.88;;;33.04;36.94
9439;BME280;5176;42.622;25.386;2023-06-24T13:45:51;97048.88;;;32.93;36.73
9439;BME280;5176;42.622;25.386;2023-06-24T13:48:19;97066.19;;;33.04;36.90
9439;BME280;5176;42.622;25.386;2023-06-24T13:50:46;97066.75;;;33.06;36.17
9439;BME280;5176;42.622;25.386;2023-06-24T13:53:14;97053.59;;;32.98;36.27
9439;BME280;5176;42.622;25.386;2023-06-24T13:55:42;97058.66;;;32.94;37.03
9439;BME280;5176;42.622;25.386;2023-06-24T13:58:10;97054.56;;;32.92;36.04
9439;BME280;5176;42.622;25.386;2023-06-24T14:00:37;97052.06;;;32.90;36.33
9439;BME280;5176;42.622;25.386;2023-06-24T14:03:04;97058.94;;;32.81;36.90
9439;BME280;5176;42.622;25.386;2023-06-24T14:05:32;97062.16;;;32.78;36.51
9439;BME280;5176;42.622;25.386;2023-06-24T14:07:59;97066.41;;;32.74;35.92
9439;BME280;5176;42.622;25.386;2023-06-24T14:10:26;97066.09;;;32.70;36.37
9439;BME280;5176;42.622;25.386;2023-06-24T14:12:55;97072.91;;;32.73;36.37
9439;BME280;5176;42.622;25.386;2023-06-24T14:15:22;97073.88;;;32.67;35.85